createdAt,value
2023-03-25T00:01:47.646Z,99877.28
2023-03-25T00:04:17.872Z,99882.28
2023-03-25T00:06:45.934Z,99878.88
2023-03-25T00:09:14.068Z,99878.59
2023-03-25T00:11:42.010Z,99879.16
2023-03-25T00:14:12.315Z,99876.34
2023-03-25T00:16:40.358Z,99872.22
2023-03-25T00:19:09.321Z,99875.19
2023-03-25T00:21:37.528Z,99863.78
2023-03-25T00:24:05.656Z,99862.97
2023-03-25T00:26:33.622Z,99859.25
2023-03-25T00:29:01.525Z,99862.34
2023-03-25T00:31:30.848Z,99859.81
2023-03-25T00:33:59.798Z,99860.50
2023-03-25T00:36:27.708Z,99871.59
2023-03-25T00:38:55.745Z,99853.25
2023-03-25T00:41:25.437Z,99856.78
2023-03-25T00:43:54.502Z,99853.94
2023-03-25T00:46:23.950Z,99856.22
2023-03-25T00:48:53.443Z,99861.47
2023-03-25T00:51:21.969Z,99856.06
2023-03-25T00:53:53.328Z,99856.22
2023-03-25T00:56:21.328Z,99857.59
2023-03-25T00:58:49.278Z,99850.06
2023-03-25T01:01:23.337Z,99856.34
2023-03-25T01:03:57.848Z,99853.88
2023-03-25T01:06:29.266Z,99861.84
2023-03-25T01:08:57.903Z,99857.59
2023-03-25T01:11:28.012Z,99853.88
2023-03-25T01:13:56.600Z,99853.75
2023-03-25T01:16:25.266Z,99853.41
2023-03-25T01:18:55.028Z,99847.88
2023-03-25T01:21:23.080Z,99852.59
2023-03-25T01:23:51.040Z,99839.38
2023-03-25T01:26:18.974Z,99845.06
2023-03-25T01:28:47.099Z,99846.22
2023-03-25T01:31:16.369Z,99839.81
2023-03-25T01:33:44.311Z,99839.81
2023-03-25T01:36:14.332Z,99836.09
2023-03-25T01:38:42.963Z,99838.34
2023-03-25T01:41:11.092Z,99835.81
2023-03-25T01:43:39.051Z,99829.25
2023-03-25T01:46:07.226Z,99824.03
2023-03-25T01:48:37.873Z,99823.16
2023-03-25T01:51:10.388Z,99816.03
2023-03-25T01:53:40.399Z,99815.66
2023-03-25T01:56:12.000Z,99809.25
2023-03-25T01:58:39.929Z,99817.19
2023-03-25T02:01:11.478Z,99809.25
2023-03-25T02:03:40.158Z,99804.84
2023-03-25T02:06:10.630Z,99794.44
2023-03-25T02:08:41.680Z,99792.03
2023-03-25T02:11:10.595Z,99793.16
2023-03-25T02:13:40.432Z,99785.78
2023-03-25T02:16:19.238Z,99790.38
2023-03-25T02:18:54.859Z,99795.06
2023-03-25T02:21:50.240Z,99789.38
2023-03-25T02:24:46.572Z,99782.66
2023-03-25T02:27:27.397Z,99778.28
2023-03-25T02:30:31.040Z,99776.72
2023-03-25T02:33:22.661Z,99775.88
2023-03-25T02:36:12.186Z,99776.16
2023-03-25T02:38:44.389Z,99777.25
2023-03-25T02:41:15.587Z,99771.84
2023-03-25T02:43:46.777Z,99772.19
2023-03-25T02:46:18.171Z,99776.72
2023-03-25T02:48:52.751Z,99766.44
2023-03-25T02:51:24.609Z,99763.63
2023-03-25T02:53:55.639Z,99762.31
2023-03-25T02:56:25.619Z,99750.81
2023-03-25T02:58:55.547Z,99756.06
2023-03-25T03:01:27.087Z,99752.81
2023-03-25T03:03:55.353Z,99749.09
2023-03-25T03:06:24.487Z,99749.09
2023-03-25T03:09:10.335Z,99749.53
2023-03-25T03:11:44.770Z,99748.28
2023-03-25T03:14:26.123Z,99738.63
2023-03-25T03:17:03.541Z,99738.34
2023-03-25T03:19:38.923Z,99735.34
2023-03-25T03:22:16.952Z,99736.34
2023-03-25T03:24:49.196Z,99733.34
2023-03-25T03:27:25.226Z,99734.19
2023-03-25T03:29:56.505Z,99738.59
2023-03-25T03:32:29.009Z,99736.72
2023-03-25T03:34:59.344Z,99734.03
2023-03-25T03:37:29.764Z,99738.59
2023-03-25T03:39:59.377Z,99735.19
2023-03-25T03:42:30.828Z,99728.63
2023-03-25T03:45:02.207Z,99731.66
2023-03-25T03:47:32.846Z,99726.09
2023-03-25T03:50:05.456Z,99724.38
2023-03-25T03:52:37.653Z,99729.34
2023-03-25T03:55:10.903Z,99725.69
2023-03-25T03:57:41.929Z,99725.22
2023-03-25T04:00:15.162Z,99717.28
2023-03-25T04:02:44.557Z,99722.22
2023-03-25T04:05:13.897Z,99730.63
2023-03-25T04:07:44.867Z,99730.09
2023-03-25T04:10:17.722Z,99729.38
2023-03-25T04:12:47.562Z,99734.69
2023-03-25T04:15:16.456Z,99745.53
2023-03-25T04:17:44.722Z,99748.13
2023-03-25T04:20:16.287Z,99747.59
2023-03-25T04:22:45.696Z,99749.63
2023-03-25T04:25:15.394Z,99751.22
2023-03-25T04:27:49.186Z,99762.28
2023-03-25T04:30:19.245Z,99760.16
2023-03-25T04:32:47.841Z,99765.56
2023-03-25T04:35:17.108Z,99777.06
2023-03-25T04:37:46.153Z,99788.69
2023-03-25T04:40:18.935Z,99789.81
2023-03-25T04:42:47.491Z,99791.56
2023-03-25T04:45:17.144Z,99787.56
2023-03-25T04:47:47.170Z,99792.09
2023-03-25T04:50:22.169Z,99794.69
2023-03-25T04:52:50.526Z,99806.75
2023-03-25T04:55:19.887Z,99814.44
2023-03-25T04:57:48.625Z,99813.59
2023-03-25T05:00:18.397Z,99811.34
2023-03-25T05:02:47.074Z,99821.97
2023-03-25T05:05:18.394Z,99815.72
2023-03-25T05:07:47.233Z,99821.00
2023-03-25T05:10:15.571Z,99827.09
2023-03-25T05:12:44.913Z,99834.03
2023-03-25T05:15:13.302Z,99837.16
2023-03-25T05:17:44.035Z,99837.31
2023-03-25T05:20:13.429Z,99842.41
2023-03-25T05:22:42.012Z,99847.13
2023-03-25T05:25:11.576Z,99846.69
2023-03-25T05:27:39.957Z,99851.66
2023-03-25T05:30:11.107Z,99847.84
2023-03-25T05:32:41.424Z,99851.81
2023-03-25T05:35:10.606Z,99861.19
2023-03-25T05:37:38.937Z,99859.03
2023-03-25T05:40:15.110Z,99868.28
2023-03-25T05:42:48.987Z,99869.69
2023-03-25T05:45:18.518Z,99874.53
2023-03-25T05:47:47.180Z,99873.41
2023-03-25T05:50:15.531Z,99868.44
2023-03-25T05:52:43.625Z,99878.63
2023-03-25T05:55:14.290Z,99885.88
2023-03-25T05:57:42.196Z,99877.38
2023-03-25T06:00:12.860Z,99882.50
2023-03-25T06:02:43.311Z,99889.56
2023-03-25T06:05:14.001Z,99890.00
2023-03-25T06:07:42.945Z,99891.00
2023-03-25T06:10:11.963Z,99891.13
2023-03-25T06:12:40.288Z,99888.00
2023-03-25T06:15:10.129Z,99900.53
2023-03-25T06:17:39.442Z,99908.47
2023-03-25T06:20:12.627Z,99909.16
2023-03-25T06:22:42.859Z,99915.41
2023-03-25T06:25:11.655Z,99916.13
2023-03-25T06:27:40.741Z,99929.22
2023-03-25T06:30:10.663Z,99926.34
2023-03-25T06:32:39.107Z,99925.94
2023-03-25T06:35:10.641Z,99918.81
2023-03-25T06:37:39.293Z,99925.78
2023-03-25T06:40:08.532Z,99929.34
2023-03-25T06:42:36.503Z,99924.81
2023-03-25T06:45:05.181Z,99938.84
2023-03-25T06:47:33.165Z,99942.84
2023-03-25T06:50:01.114Z,99939.16
2023-03-25T06:52:30.432Z,99949.38
2023-03-25T06:54:58.341Z,99943.84
2023-03-25T06:57:26.240Z,99940.56
2023-03-25T06:59:54.160Z,99936.88
2023-03-25T07:02:22.075Z,99941.72
2023-03-25T07:04:50.020Z,99939.72
2023-03-25T07:07:17.972Z,99941.44
2023-03-25T07:09:47.211Z,99941.13
2023-03-25T07:12:15.672Z,99937.31
2023-03-25T07:14:44.429Z,99945.94
2023-03-25T07:17:12.388Z,99935.47
2023-03-25T07:19:40.265Z,99936.16
2023-03-25T07:22:08.176Z,99939.56
2023-03-25T07:24:36.112Z,99935.44
2023-03-25T07:27:05.573Z,99931.88
2023-03-25T07:29:33.523Z,99937.69
2023-03-25T07:32:01.423Z,99931.31
2023-03-25T07:34:29.354Z,99929.16
2023-03-25T07:36:57.261Z,99928.13
2023-03-25T07:39:25.653Z,99924.47
2023-03-25T07:41:53.572Z,99918.63
2023-03-25T07:44:22.942Z,99926.75
2023-03-25T07:46:51.017Z,99922.72
2023-03-25T07:49:19.014Z,99922.19
2023-03-25T07:51:47.137Z,99915.97
2023-03-25T07:54:15.031Z,99904.56
2023-03-25T07:56:42.994Z,99906.25
2023-03-25T07:59:10.931Z,99903.47
2023-03-25T08:01:40.491Z,99913.09
2023-03-25T08:04:08.458Z,99897.63
2023-03-25T08:06:36.337Z,99900.78
2023-03-25T08:09:04.380Z,99892.63
2023-03-25T08:11:33.910Z,99890.09
2023-03-25T08:14:02.475Z,99896.47
2023-03-25T08:16:30.439Z,99889.56
2023-03-25T08:18:59.803Z,99894.22
2023-03-25T08:21:27.989Z,99890.31
2023-03-25T08:23:58.749Z,99892.78
2023-03-25T08:26:27.046Z,99887.63
2023-03-25T08:28:57.881Z,99906.31
2023-03-25T08:31:26.611Z,99912.00
2023-03-25T08:33:54.576Z,99910.16
2023-03-25T08:36:26.650Z,99913.00
2023-03-25T08:38:54.723Z,99924.38
2023-03-25T08:41:22.796Z,99908.88
2023-03-25T08:43:51.252Z,99920.50
2023-03-25T08:46:19.221Z,99930.03
2023-03-25T08:48:50.099Z,99944.69
2023-03-25T08:51:18.398Z,99939.84
2023-03-25T08:53:49.587Z,99943.38
2023-03-25T08:56:17.800Z,99936.16
2023-03-25T08:58:45.700Z,99931.75
2023-03-25T09:01:13.930Z,99937.88
2023-03-25T09:03:42.292Z,99935.31
2023-03-25T09:06:10.802Z,99934.31
2023-03-25T09:08:38.772Z,99928.06
2023-03-25T09:11:08.452Z,99927.50
2023-03-25T09:13:36.410Z,99931.88
2023-03-25T09:16:04.518Z,99923.81
2023-03-25T09:18:33.162Z,99934.00
2023-03-25T09:21:01.385Z,99927.63
2023-03-25T09:23:29.533Z,99927.09
2023-03-25T09:26:01.367Z,99927.09
2023-03-25T09:28:31.172Z,99924.38
2023-03-25T09:30:59.239Z,99922.97
2023-03-25T09:33:27.713Z,99930.63
2023-03-25T09:35:55.931Z,99922.53
2023-03-25T09:38:23.894Z,99927.22
2023-03-25T09:40:51.837Z,99927.22
2023-03-25T09:43:30.729Z,99923.38
2023-03-25T09:46:19.578Z,99922.66
2023-03-25T09:48:48.653Z,99926.63
2023-03-25T09:51:20.488Z,99919.22
2023-03-25T09:53:51.890Z,99913.25
2023-03-25T09:56:22.848Z,99913.03
2023-03-25T09:58:53.753Z,99909.63
2023-03-25T10:01:33.171Z,99908.47
2023-03-25T10:04:12.327Z,99914.66
2023-03-25T10:06:43.808Z,99895.09
2023-03-25T10:09:30.778Z,99893.56
2023-03-25T10:12:02.559Z,99893.72
2023-03-25T10:14:34.792Z,99879.94
2023-03-25T10:17:12.636Z,99893.00
2023-03-25T10:19:51.224Z,99877.47
2023-03-25T10:22:22.435Z,99864.50
2023-03-25T10:24:53.334Z,99856.41
2023-03-25T10:27:24.227Z,99846.69
2023-03-25T10:29:55.828Z,99841.13
2023-03-25T10:32:31.474Z,99838.66
2023-03-25T10:35:00.939Z,99839.63
2023-03-25T10:37:32.688Z,99838.59
2023-03-25T10:40:12.328Z,99835.59
2023-03-25T10:42:42.364Z,99840.53
2023-03-25T10:45:14.120Z,99867.03
2023-03-25T10:47:42.855Z,99866.09
2023-03-25T10:50:16.443Z,99868.75
2023-03-25T10:52:44.963Z,99870.66
2023-03-25T10:55:25.385Z,99884.78
2023-03-25T10:57:53.980Z,99900.03
2023-03-25T11:00:26.570Z,99891.16
2023-03-25T11:02:56.216Z,99901.72
2023-03-25T11:05:27.984Z,99900.84
2023-03-25T11:07:57.699Z,99898.72
2023-03-25T11:10:27.220Z,99903.97
2023-03-25T11:12:58.760Z,99904.91
2023-03-25T11:15:32.257Z,99904.00
2023-03-25T11:18:02.082Z,99908.19
2023-03-25T11:20:33.055Z,99910.22
2023-03-25T11:23:07.239Z,99915.72
2023-03-25T11:25:40.767Z,99904.63
2023-03-25T11:28:17.143Z,99908.38
2023-03-25T11:31:09.845Z,99902.59
2023-03-25T11:33:38.391Z,99901.53
2023-03-25T11:36:24.444Z,99894.59
2023-03-25T11:38:55.924Z,99894.78
2023-03-25T11:41:24.197Z,99887.47
2023-03-25T11:43:52.148Z,99888.31
2023-03-25T11:46:22.247Z,99867.94
2023-03-25T11:48:51.158Z,99864.31
2023-03-25T11:51:23.978Z,99865.63
2023-03-25T11:53:57.940Z,99864.84
2023-03-25T11:56:32.280Z,99860.78
2023-03-25T11:59:02.538Z,99861.22
2023-03-25T12:01:43.303Z,99860.44
2023-03-25T12:04:17.121Z,99841.72
2023-03-25T12:06:57.355Z,99850.13
2023-03-25T12:09:29.064Z,99842.72
2023-03-25T12:12:23.190Z,99834.50
2023-03-25T12:15:00.178Z,99836.16
2023-03-25T12:17:37.838Z,99833.78
2023-03-25T12:20:15.315Z,99821.25
2023-03-25T12:22:55.661Z,99820.69
2023-03-25T12:25:28.447Z,99823.13
2023-03-25T12:28:19.564Z,99830.66
2023-03-25T12:30:55.210Z,99822.72
2023-03-25T12:33:33.272Z,99810.56
2023-03-25T12:36:16.467Z,99821.66
2023-03-25T12:38:51.371Z,99824.16
2023-03-25T12:41:23.310Z,99836.94
2023-03-25T12:44:01.384Z,99843.13
2023-03-25T12:46:42.099Z,99840.22
2023-03-25T12:49:22.185Z,99846.34
2023-03-25T12:51:57.035Z,99843.31
2023-03-25T12:54:33.479Z,99854.06
2023-03-25T12:57:08.629Z,99857.44
2023-03-25T13:00:07.975Z,99867.28
2023-03-25T13:03:03.241Z,99879.44
2023-03-25T13:05:38.992Z,99885.66
2023-03-25T13:08:10.588Z,99874.53
2023-03-25T13:10:41.331Z,99869.56
2023-03-25T13:13:13.319Z,99885.97
2023-03-25T13:15:44.570Z,99888.53
2023-03-25T13:18:15.487Z,99890.50
2023-03-25T13:20:49.786Z,99896.50
2023-03-25T13:23:22.026Z,99903.28
2023-03-25T13:25:53.236Z,99900.19
2023-03-25T13:28:25.582Z,99900.06
2023-03-25T13:30:54.256Z,99899.50
2023-03-25T13:33:26.160Z,99894.78
2023-03-25T13:35:57.802Z,99892.09
2023-03-25T13:38:30.007Z,99888.38
2023-03-25T13:41:09.124Z,99883.22
2023-03-25T13:43:41.394Z,99880.94
2023-03-25T13:46:10.988Z,99876.78
2023-03-25T13:48:41.906Z,99874.53
2023-03-25T13:51:11.470Z,99871.91
2023-03-25T13:56:46.582Z,99876.94
2023-03-25T13:59:41.635Z,99869.84
2023-03-25T14:02:23.758Z,99878.91
2023-03-25T14:05:38.163Z,99874.81
2023-03-25T14:08:27.203Z,99881.41
2023-03-25T14:10:56.039Z,99880.78
2023-03-25T14:13:26.660Z,99874.59
2023-03-25T14:15:59.288Z,99888.84
2023-03-25T14:18:32.061Z,99879.28
2023-03-25T14:21:00.503Z,99882.81
2023-03-25T14:23:32.174Z,99885.84
2023-03-25T14:26:01.191Z,99880.38
2023-03-25T14:28:41.044Z,99883.88
2023-03-25T14:31:18.068Z,99874.28
2023-03-25T14:34:25.676Z,99870.53
2023-03-25T14:37:30.627Z,99868.66
2023-03-25T14:40:02.187Z,99875.13
2023-03-25T14:42:31.833Z,99869.38
2023-03-25T14:45:48.323Z,99873.69
2023-03-25T14:48:31.507Z,99895.09
2023-03-25T14:51:23.138Z,99892.84
2023-03-25T14:53:54.804Z,99908.94
2023-03-25T14:56:26.655Z,99888.25
2023-03-25T14:58:56.365Z,99888.66
2023-03-25T15:01:30.257Z,99883.59
2023-03-25T15:04:11.791Z,99871.28
2023-03-25T15:06:40.067Z,99872.75
2023-03-25T15:09:11.825Z,99863.00
2023-03-25T15:11:42.880Z,99861.31
2023-03-25T15:14:13.337Z,99861.38
2023-03-25T15:17:01.643Z,99842.66
2023-03-25T15:19:29.636Z,99833.88
2023-03-25T15:22:20.318Z,99826.31
2023-03-25T15:25:07.353Z,99812.75
2023-03-25T15:28:01.976Z,99810.41
2023-03-25T15:30:53.502Z,99808.06
2023-03-25T15:33:41.540Z,99796.13
2023-03-25T15:36:36.297Z,99794.03
2023-03-25T15:39:16.524Z,99781.88
2023-03-25T15:42:01.692Z,99773.81
2023-03-25T15:44:59.734Z,99751.00
2023-03-25T15:47:49.474Z,99763.91
2023-03-25T15:50:32.831Z,99779.38
2023-03-25T15:53:44.458Z,99778.97
2023-03-25T15:56:13.958Z,99792.16
2023-03-25T15:58:45.844Z,99789.31
2023-03-25T16:01:19.661Z,99798.16
2023-03-25T16:03:58.947Z,99805.13
2023-03-25T16:06:27.904Z,99815.56
2023-03-25T16:08:59.521Z,99849.94
2023-03-25T16:11:28.838Z,99908.31
2023-03-25T16:14:08.404Z,99882.78
2023-03-25T16:16:39.971Z,99892.56
2023-03-25T16:19:11.796Z,99898.22
2023-03-25T16:21:39.999Z,99878.91
2023-03-25T16:24:09.204Z,99867.75
2023-03-25T16:26:39.393Z,99850.00
2023-03-25T16:29:20.416Z,99858.25
2023-03-25T16:31:57.968Z,99850.78
2023-03-25T16:34:26.796Z,99857.03
2023-03-25T16:36:55.511Z,99873.53
2023-03-25T16:39:25.221Z,99885.38
2023-03-25T16:42:01.114Z,99885.75
2023-03-25T16:44:29.239Z,99896.22
2023-03-25T16:46:58.677Z,99893.03
2023-03-25T16:49:28.495Z,99893.63
2023-03-25T16:51:56.838Z,99889.13
2023-03-25T16:54:37.808Z,99893.16
2023-03-25T16:57:08.277Z,99884.09
2023-03-25T16:59:37.994Z,99883.69
2023-03-25T17:02:26.011Z,99882.41
2023-03-25T17:04:56.627Z,99885.09
2023-03-25T17:07:27.837Z,99884.53
2023-03-25T17:09:58.704Z,99884.25
2023-03-25T17:12:27.957Z,99883.81
2023-03-25T17:14:59.788Z,99889.22
2023-03-25T17:17:35.923Z,99899.19
2023-03-25T17:20:08.579Z,99900.34
2023-03-25T17:22:38.598Z,99905.19
2023-03-25T17:25:27.432Z,99909.00
2023-03-25T17:27:56.933Z,99908.84
2023-03-25T17:30:40.655Z,99914.34
2023-03-25T17:33:15.627Z,99924.16
2023-03-25T17:35:45.168Z,99922.09
2023-03-25T17:38:19.674Z,99919.63
2023-03-25T17:40:47.736Z,99919.31
2023-03-25T17:43:20.866Z,99918.03
2023-03-25T17:45:48.876Z,99922.72
2023-03-25T17:48:19.098Z,99922.31
2023-03-25T17:50:54.315Z,99928.25
2023-03-25T17:53:38.952Z,99926.25
2023-03-25T17:56:17.038Z,99924.00
2023-03-25T17:58:45.458Z,99933.97
2023-03-25T18:01:13.742Z,99932.63
2023-03-25T18:03:43.027Z,99938.19
2023-03-25T18:06:15.894Z,99947.66
2023-03-25T18:08:43.872Z,99947.53
2023-03-25T18:11:12.410Z,99955.94
2023-03-25T18:13:45.800Z,99955.94
2023-03-25T18:16:13.686Z,99958.72
2023-03-25T18:18:43.233Z,99963.84
2023-03-25T18:21:12.346Z,99966.69
2023-03-25T18:23:40.316Z,99970.22
2023-03-25T18:26:12.805Z,99968.00
2023-03-25T18:28:42.968Z,99978.19
2023-03-25T18:31:13.773Z,99979.22
2023-03-25T18:33:43.204Z,99977.06
2023-03-25T18:36:11.560Z,99982.72
2023-03-25T18:38:39.928Z,99977.66
2023-03-25T18:41:08.829Z,99987.13
2023-03-25T18:43:36.742Z,99998.03
2023-03-25T18:46:05.090Z,99999.03
2023-03-25T18:48:33.054Z,99994.91
2023-03-25T18:51:02.521Z,100000.44
2023-03-25T18:53:31.214Z,100005.50
2023-03-25T18:56:00.935Z,100009.50
2023-03-25T18:58:31.077Z,100017.59
2023-03-25T19:00:59.487Z,100023.16
2023-03-25T19:03:31.746Z,100020.81
2023-03-25T19:06:00.370Z,100027.06
2023-03-25T19:08:29.912Z,100031.94
2023-03-25T19:11:05.021Z,100029.84
2023-03-25T19:13:40.556Z,100039.78
2023-03-25T19:16:09.146Z,100047.88
2023-03-25T19:18:37.088Z,100053.25
2023-03-25T19:21:05.765Z,100052.56
2023-03-25T19:23:36.453Z,100055.00
2023-03-25T19:26:04.573Z,100067.47
2023-03-25T19:28:32.492Z,100069.88
2023-03-25T19:31:01.596Z,100070.72
2023-03-25T19:33:31.210Z,100070.72
2023-03-25T19:36:01.697Z,100071.09
2023-03-25T19:38:30.153Z,100078.06
2023-03-25T19:41:08.306Z,100078.81
2023-03-25T19:43:36.649Z,100082.94
2023-03-25T19:46:07.053Z,100085.63
2023-03-25T19:48:35.600Z,100090.97
2023-03-25T19:51:04.112Z,100091.28
2023-03-25T19:53:32.108Z,100093.59
2023-03-25T19:56:03.175Z,100089.66
2023-03-25T19:58:33.413Z,100098.47
2023-03-25T20:01:01.576Z,100098.53
2023-03-25T20:03:31.392Z,100095.09
2023-03-25T20:06:01.006Z,100102.16
2023-03-25T20:08:29.737Z,100095.38
2023-03-25T20:10:57.698Z,100111.84
2023-03-25T20:13:25.812Z,100104.97
2023-03-25T20:15:55.461Z,100109.25
2023-03-25T20:18:23.693Z,100118.06
2023-03-25T20:20:51.638Z,100122.47
2023-03-25T20:23:19.535Z,100123.75
2023-03-25T20:25:48.646Z,100125.44
2023-03-25T20:28:18.426Z,100135.81
2023-03-25T20:30:46.405Z,100141.03
2023-03-25T20:33:15.781Z,100131.06
2023-03-25T20:35:44.555Z,100133.50
2023-03-25T20:38:14.260Z,100149.56
2023-03-25T20:40:45.059Z,100148.31
2023-03-25T20:43:14.833Z,100165.75
2023-03-25T20:45:43.520Z,100148.47
2023-03-25T20:48:11.574Z,100149.88
2023-03-25T20:50:41.060Z,100150.78
2023-03-25T20:53:09.208Z,100153.56
2023-03-25T20:55:37.477Z,100153.44
2023-03-25T20:58:05.928Z,100160.00
2023-03-25T21:00:34.328Z,100166.31
2023-03-25T21:03:03.169Z,100170.75
2023-03-25T21:05:31.316Z,100177.44
2023-03-25T21:08:00.679Z,100177.00
2023-03-25T21:10:28.619Z,100191.03
2023-03-25T21:12:56.572Z,100187.03
2023-03-25T21:15:24.498Z,100187.94
2023-03-25T21:17:52.394Z,100183.34
2023-03-25T21:20:24.073Z,100192.03
2023-03-25T21:22:52.875Z,100192.03
2023-03-25T21:25:22.181Z,100196.44
2023-03-25T21:27:50.180Z,100198.56
2023-03-25T21:30:18.424Z,100204.00
2023-03-25T21:32:46.332Z,100200.19
2023-03-25T21:35:14.755Z,100207.22
2023-03-25T21:37:42.695Z,100209.19
2023-03-25T21:40:12.584Z,100221.81
2023-03-25T21:42:42.264Z,100213.41
2023-03-25T21:45:12.160Z,100219.47
2023-03-25T21:47:41.388Z,100215.78
2023-03-25T21:50:11.538Z,100219.84
2023-03-25T21:52:43.116Z,100217.28
2023-03-25T21:55:12.616Z,100216.41
2023-03-25T21:57:44.553Z,100217.44
2023-03-25T22:00:16.488Z,100218.25
2023-03-25T22:02:45.569Z,100218.84
2023-03-25T22:05:14.343Z,100218.72
2023-03-25T22:07:42.566Z,100213.63
2023-03-25T22:10:11.692Z,100219.00
2023-03-25T22:12:41.246Z,100224.50
2023-03-25T22:15:10.970Z,100224.09
2023-03-25T22:17:38.920Z,100231.72
2023-03-25T22:20:08.912Z,100238.44
2023-03-25T22:22:36.912Z,100241.53
2023-03-25T22:25:05.176Z,100232.59
2023-03-25T22:27:33.098Z,100245.56
2023-03-25T22:30:02.743Z,100240.44
2023-03-25T22:32:30.718Z,100245.31
2023-03-25T22:34:58.644Z,100244.50
2023-03-25T22:37:26.579Z,100256.13
2023-03-25T22:39:54.496Z,100261.53
2023-03-25T22:42:22.441Z,100263.25
2023-03-25T22:44:50.320Z,100266.19
2023-03-25T22:47:19.764Z,100267.16
2023-03-25T22:49:47.639Z,100279.53
2023-03-25T22:52:15.523Z,100275.47
2023-03-25T22:54:43.528Z,100279.41
2023-03-25T22:57:11.536Z,100279.91
2023-03-25T22:59:39.442Z,100284.06
2023-03-25T23:02:07.784Z,100290.66
2023-03-25T23:04:37.972Z,100296.91
2023-03-25T23:07:08.516Z,100297.03
2023-03-25T23:09:42.358Z,100304.50
2023-03-25T23:12:11.650Z,100306.09
2023-03-25T23:14:40.659Z,100307.34
2023-03-25T23:17:10.343Z,100306.09
2023-03-25T23:19:39.673Z,100313.00
2023-03-25T23:22:07.640Z,100315.56
2023-03-25T23:24:37.031Z,100317.50
2023-03-25T23:27:05.739Z,100312.00
2023-03-25T23:29:35.869Z,100320.09
2023-03-25T23:32:03.887Z,100328.44
2023-03-25T23:34:33.940Z,100326.34
2023-03-25T23:37:03.473Z,100334.94
2023-03-25T23:39:31.844Z,100332.25
2023-03-25T23:41:59.779Z,100344.13
2023-03-25T23:44:27.690Z,100352.78
2023-03-25T23:46:55.859Z,100344.59
2023-03-25T23:49:23.961Z,100351.34
2023-03-25T23:51:52.117Z,100347.06
2023-03-25T23:54:21.421Z,100351.13
2023-03-25T23:56:49.323Z,100354.91
2023-03-25T23:59:17.227Z,100362.88
